createdAt,value
2023-08-20T00:00:22.318Z,93.79
2023-08-20T00:02:52.561Z,94.06
2023-08-20T00:05:19.558Z,94.52
2023-08-20T00:07:46.108Z,95.02
2023-08-20T00:10:12.680Z,94.75
2023-08-20T00:12:39.200Z,94.29
2023-08-20T00:15:06.979Z,94.69
2023-08-20T00:17:34.842Z,95.35
2023-08-20T00:20:02.443Z,95.10
2023-08-20T00:22:29.209Z,95.19
2023-08-20T00:24:56.276Z,95.14
2023-08-20T00:27:23.044Z,95.72
2023-08-20T00:29:49.642Z,96.01
2023-08-20T00:32:16.639Z,95.59
2023-08-20T00:34:43.341Z,96.37
2023-08-20T00:37:09.875Z,95.86
2023-08-20T00:39:36.436Z,96.04
2023-08-20T00:42:03.557Z,96.52
2023-08-20T00:44:30.087Z,96.67
2023-08-20T00:46:56.901Z,96.57
2023-08-20T00:49:23.985Z,96.24
2023-08-20T00:51:51.827Z,96.40
2023-08-20T00:54:18.833Z,96.96
2023-08-20T00:56:46.018Z,96.88
2023-08-20T00:59:12.728Z,96.64
2023-08-20T01:01:39.295Z,96.35
2023-08-20T01:04:06.137Z,95.87
2023-08-20T01:06:56.446Z,95.27
2023-08-20T01:09:44.404Z,95.43
2023-08-20T01:12:11.315Z,95.94
2023-08-20T01:14:37.848Z,95.92
2023-08-20T01:17:04.444Z,96.77
2023-08-20T01:19:30.989Z,96.26
2023-08-20T01:22:16.453Z,96.45
2023-08-20T01:25:11.004Z,96.24
2023-08-20T01:27:51.370Z,96.32
2023-08-20T01:30:20.912Z,96.71
2023-08-20T01:32:49.456Z,96.78
2023-08-20T01:35:17.901Z,96.33
2023-08-20T01:37:45.024Z,96.78
2023-08-20T01:40:12.215Z,96.83
2023-08-20T01:42:39.432Z,96.77
2023-08-20T01:45:07.204Z,96.59
2023-08-20T01:47:34.824Z,96.68
2023-08-20T01:50:03.249Z,97.13
2023-08-20T01:52:31.735Z,97.15
2023-08-20T01:54:59.066Z,97.90
2023-08-20T01:57:25.569Z,97.87
2023-08-20T01:59:52.124Z,97.81
2023-08-20T02:02:18.647Z,97.88
2023-08-20T02:04:45.436Z,98.19
2023-08-20T02:07:11.989Z,97.81
2023-08-20T02:09:38.480Z,97.67
2023-08-20T02:12:05.460Z,97.99
2023-08-20T02:14:35.670Z,98.41
2023-08-20T02:17:03.751Z,98.34
2023-08-20T02:19:30.343Z,97.76
2023-08-20T02:21:56.937Z,97.74
2023-08-20T02:24:23.466Z,97.76
2023-08-20T02:26:50.124Z,98.62
2023-08-20T02:29:16.670Z,98.45
2023-08-20T02:31:43.260Z,98.53
2023-08-20T02:34:09.856Z,98.58
2023-08-20T02:36:36.365Z,98.69
2023-08-20T02:39:04.943Z,98.63
2023-08-20T02:41:31.453Z,98.47
2023-08-20T02:43:57.963Z,98.62
2023-08-20T02:46:24.620Z,99.13
2023-08-20T02:48:51.247Z,99.07
2023-08-20T02:51:17.783Z,99.22
2023-08-20T02:53:44.496Z,98.81
2023-08-20T02:56:11.318Z,98.96
2023-08-20T02:58:37.879Z,98.46
2023-08-20T03:01:04.582Z,98.98
2023-08-20T03:03:31.089Z,98.78
2023-08-20T03:05:57.721Z,99.32
2023-08-20T03:08:24.593Z,99.24
2023-08-20T03:10:51.210Z,98.63
2023-08-20T03:13:17.713Z,98.48
2023-08-20T03:15:44.287Z,98.68
2023-08-20T03:18:11.045Z,99.23
2023-08-20T03:20:37.595Z,98.98
2023-08-20T03:23:04.317Z,98.84
2023-08-20T03:25:30.834Z,99.18
2023-08-20T03:27:57.475Z,99.60
2023-08-20T03:30:24.113Z,99.83
2023-08-20T03:32:50.703Z,99.72
2023-08-20T03:35:17.258Z,100.00
2023-08-20T03:37:43.858Z,99.72
2023-08-20T03:40:11.000Z,99.53
2023-08-20T03:42:37.595Z,98.82
2023-08-20T03:45:05.237Z,99.30
2023-08-20T03:47:31.777Z,100.00
2023-08-20T03:49:58.319Z,99.72
2023-08-20T03:52:24.934Z,99.54
2023-08-20T03:54:51.873Z,99.78
2023-08-20T03:57:18.523Z,99.80
2023-08-20T03:59:46.450Z,99.44
2023-08-20T04:02:13.012Z,99.41
2023-08-20T04:04:39.688Z,99.59
2023-08-20T04:07:06.236Z,100.00
2023-08-20T04:09:34.786Z,99.96
2023-08-20T04:12:01.285Z,100.00
2023-08-20T04:14:27.905Z,100.00
2023-08-20T04:16:54.367Z,100.00
2023-08-20T04:19:21.031Z,100.00
2023-08-20T04:21:47.680Z,100.00
2023-08-20T04:24:14.221Z,100.00
2023-08-20T04:26:40.781Z,100.00
2023-08-20T04:29:07.556Z,100.00
2023-08-20T04:31:34.123Z,100.00
2023-08-20T04:34:00.700Z,100.00
2023-08-20T04:36:27.249Z,100.00
2023-08-20T04:38:53.812Z,100.00
2023-08-20T04:41:20.485Z,100.00
2023-08-20T04:43:46.998Z,100.00
2023-08-20T04:46:13.715Z,100.00
2023-08-20T04:48:40.258Z,100.00
2023-08-20T04:51:07.870Z,100.00
2023-08-20T04:53:34.382Z,100.00
2023-08-20T04:56:00.902Z,100.00
2023-08-20T04:58:27.433Z,100.00
2023-08-20T05:00:54.226Z,100.00
2023-08-20T05:03:20.988Z,100.00
2023-08-20T05:05:51.771Z,100.00
2023-08-20T05:08:18.545Z,100.00
2023-08-20T05:10:45.067Z,100.00
2023-08-20T05:13:11.975Z,100.00
2023-08-20T05:15:38.543Z,100.00
2023-08-20T05:18:05.269Z,100.00
2023-08-20T05:20:31.828Z,100.00
2023-08-20T05:22:58.350Z,100.00
2023-08-20T05:25:25.066Z,100.00
2023-08-20T05:27:51.602Z,100.00
2023-08-20T05:30:18.248Z,100.00
2023-08-20T05:32:45.312Z,100.00
2023-08-20T05:35:11.802Z,100.00
2023-08-20T05:37:38.594Z,100.00
2023-08-20T05:40:05.710Z,100.00
2023-08-20T05:42:32.237Z,100.00
2023-08-20T05:44:58.800Z,100.00
2023-08-20T05:47:25.380Z,100.00
2023-08-20T05:49:51.883Z,100.00
2023-08-20T05:52:18.458Z,100.00
2023-08-20T05:54:45.002Z,100.00
2023-08-20T05:57:11.543Z,100.00
2023-08-20T05:59:38.085Z,100.00
2023-08-20T06:02:04.800Z,100.00
2023-08-20T06:04:31.882Z,100.00
2023-08-20T06:06:58.471Z,100.00
2023-08-20T06:09:25.032Z,100.00
2023-08-20T06:11:52.584Z,100.00
2023-08-20T06:14:19.175Z,100.00
2023-08-20T06:16:45.862Z,100.00
2023-08-20T06:19:15.210Z,100.00
2023-08-20T06:21:41.805Z,100.00
2023-08-20T06:24:08.651Z,100.00
2023-08-20T06:26:35.159Z,100.00
2023-08-20T06:29:01.698Z,100.00
2023-08-20T06:31:28.369Z,100.00
2023-08-20T06:33:55.013Z,100.00
2023-08-20T06:36:21.527Z,99.97
2023-08-20T06:38:48.162Z,99.50
2023-08-20T06:41:14.722Z,99.61
2023-08-20T06:43:41.256Z,99.26
2023-08-20T06:46:08.026Z,98.80
2023-08-20T06:48:34.787Z,98.01
2023-08-20T06:51:10.178Z,98.24
2023-08-20T06:53:36.669Z,97.13
2023-08-20T06:56:03.619Z,96.59
2023-08-20T06:58:30.885Z,96.79
2023-08-20T07:00:57.429Z,96.63
2023-08-20T07:03:23.958Z,96.99
2023-08-20T07:05:50.556Z,97.02
2023-08-20T07:08:17.086Z,96.76
2023-08-20T07:10:43.609Z,96.92
2023-08-20T07:13:10.137Z,96.52
2023-08-20T07:15:36.645Z,95.58
2023-08-20T07:18:03.312Z,95.96
2023-08-20T07:20:30.065Z,95.00
2023-08-20T07:22:57.845Z,94.42
2023-08-20T07:25:25.075Z,93.75
2023-08-20T07:27:52.096Z,93.83
2023-08-20T07:30:19.000Z,93.79
2023-08-20T07:32:45.514Z,92.97
2023-08-20T07:35:12.337Z,93.59
2023-08-20T07:37:39.005Z,92.39
2023-08-20T07:40:06.329Z,92.89
2023-08-20T07:42:32.967Z,92.32
2023-08-20T07:44:59.546Z,92.14
2023-08-20T07:47:26.100Z,91.39
2023-08-20T07:49:52.636Z,91.08
2023-08-20T07:52:19.118Z,90.22
2023-08-20T07:54:45.852Z,89.70
2023-08-20T07:57:12.406Z,89.95
2023-08-20T07:59:39.352Z,89.01
2023-08-20T08:02:06.509Z,89.27
2023-08-20T08:04:33.058Z,85.97
2023-08-20T08:06:59.518Z,85.99
2023-08-20T08:09:32.354Z,86.20
2023-08-20T08:11:59.978Z,85.58
2023-08-20T08:14:27.014Z,84.99
2023-08-20T08:16:53.813Z,85.59
2023-08-20T08:19:21.208Z,85.08
2023-08-20T08:21:48.460Z,72.94
2023-08-20T08:24:15.602Z,63.55
2023-08-20T08:26:43.004Z,58.99
2023-08-20T08:29:10.638Z,54.12
2023-08-20T08:31:37.244Z,53.13
2023-08-20T08:34:06.701Z,50.86
2023-08-20T08:36:33.257Z,49.12
2023-08-20T08:38:59.836Z,47.47
2023-08-20T08:41:27.177Z,47.28
2023-08-20T08:43:56.328Z,48.48
2023-08-20T08:46:25.313Z,44.49
2023-08-20T08:48:53.255Z,45.40
2023-08-20T08:51:20.017Z,47.07
2023-08-20T08:53:47.880Z,42.90
2023-08-20T08:56:14.481Z,43.90
2023-08-20T08:58:41.353Z,42.93
2023-08-20T09:01:08.259Z,41.53
2023-08-20T09:03:34.956Z,41.87
2023-08-20T09:06:04.305Z,43.39
2023-08-20T09:08:32.387Z,44.47
2023-08-20T09:10:59.752Z,39.74
2023-08-20T09:13:37.186Z,41.99
2023-08-20T09:16:11.717Z,41.90
2023-08-20T09:18:47.725Z,41.35
2023-08-20T09:21:14.946Z,39.29
2023-08-20T09:23:41.566Z,41.64
2023-08-20T09:26:09.183Z,38.85
2023-08-20T09:28:46.811Z,39.91
2023-08-20T09:31:15.192Z,38.70
2023-08-20T09:33:55.247Z,41.31
2023-08-20T09:36:32.319Z,40.16
2023-08-20T09:38:58.831Z,41.71
2023-08-20T09:41:26.517Z,43.39
2023-08-20T09:44:05.486Z,41.14
2023-08-20T09:46:33.966Z,42.07
2023-08-20T09:49:00.957Z,43.08
2023-08-20T09:51:29.767Z,42.78
2023-08-20T09:54:22.659Z,45.27
2023-08-20T09:56:59.818Z,45.14
2023-08-20T09:59:27.869Z,47.78
2023-08-20T10:01:55.676Z,47.29
2023-08-20T10:04:22.482Z,51.55
2023-08-20T10:06:49.410Z,50.71
2023-08-20T10:09:16.592Z,47.52
2023-08-20T10:11:43.201Z,49.88
2023-08-20T10:14:09.928Z,48.97
2023-08-20T10:16:36.748Z,48.66
2023-08-20T10:19:06.638Z,45.87
2023-08-20T10:21:33.758Z,48.01
2023-08-20T10:24:09.977Z,47.38
2023-08-20T10:26:37.182Z,48.03
2023-08-20T10:29:43.289Z,48.27
2023-08-20T10:32:11.718Z,47.44
2023-08-20T10:34:41.159Z,48.60
2023-08-20T10:37:14.365Z,49.45
2023-08-20T10:39:43.481Z,46.32
2023-08-20T10:42:16.606Z,47.28
2023-08-20T10:45:06.187Z,48.25
2023-08-20T10:47:59.035Z,51.18
2023-08-20T10:50:30.676Z,50.89
2023-08-20T10:52:57.265Z,47.14
2023-08-20T10:55:24.964Z,48.42
2023-08-20T10:58:00.488Z,50.39
2023-08-20T11:00:27.452Z,50.43
2023-08-20T11:02:54.218Z,47.77
2023-08-20T11:05:22.608Z,48.28
2023-08-20T11:07:50.043Z,48.38
2023-08-20T11:10:17.538Z,48.59
2023-08-20T11:12:47.822Z,48.38
2023-08-20T11:15:14.508Z,46.65
2023-08-20T11:17:48.403Z,49.65
2023-08-20T11:20:17.840Z,48.47
2023-08-20T11:22:44.484Z,48.10
2023-08-20T11:25:14.352Z,47.20
2023-08-20T11:27:44.794Z,50.30
2023-08-20T11:30:15.410Z,48.50
2023-08-20T11:32:44.021Z,48.21
2023-08-20T11:35:11.060Z,47.99
2023-08-20T11:37:37.832Z,46.01
2023-08-20T11:40:08.821Z,49.15
2023-08-20T11:42:35.524Z,48.60
2023-08-20T11:45:02.107Z,47.52
2023-08-20T11:47:28.961Z,47.20
2023-08-20T11:50:09.174Z,50.89
2023-08-20T11:52:37.450Z,50.55
2023-08-20T11:55:04.783Z,50.46
2023-08-20T11:57:31.473Z,48.50
2023-08-20T12:00:05.611Z,53.83
2023-08-20T12:02:39.989Z,51.90
2023-08-20T12:05:07.615Z,52.26
2023-08-20T12:07:34.692Z,52.38
2023-08-20T12:10:22.530Z,52.86
2023-08-20T12:12:49.928Z,51.60
2023-08-20T12:15:16.559Z,48.27
2023-08-20T12:17:43.166Z,47.40
2023-08-20T12:20:13.797Z,51.67
2023-08-20T12:22:40.690Z,47.92
2023-08-20T12:25:07.700Z,49.10
2023-08-20T12:27:35.704Z,48.34
2023-08-20T12:30:02.365Z,48.76
2023-08-20T12:32:29.060Z,51.25
2023-08-20T12:34:55.696Z,49.59
2023-08-20T12:37:22.246Z,46.60
2023-08-20T12:39:50.073Z,46.77
2023-08-20T12:42:16.652Z,47.75
2023-08-20T12:44:43.221Z,48.01
2023-08-20T12:47:09.984Z,51.78
2023-08-20T12:49:36.577Z,51.74
2023-08-20T12:52:04.174Z,50.25
2023-08-20T12:54:30.777Z,48.66
2023-08-20T12:56:57.580Z,54.56
2023-08-20T12:59:26.929Z,53.31
2023-08-20T13:01:53.925Z,46.43
2023-08-20T13:04:20.790Z,48.86
2023-08-20T13:06:48.449Z,50.52
2023-08-20T13:09:16.483Z,52.79
2023-08-20T13:11:45.669Z,49.46
2023-08-20T13:14:12.581Z,48.04
2023-08-20T13:16:39.462Z,49.75
2023-08-20T13:19:06.641Z,47.98
2023-08-20T13:21:33.158Z,52.86
2023-08-20T13:23:59.661Z,50.14
2023-08-20T13:26:26.233Z,49.50
2023-08-20T13:28:52.824Z,46.77
2023-08-20T13:31:19.533Z,50.75
2023-08-20T13:33:46.253Z,48.86
2023-08-20T13:36:12.805Z,49.51
2023-08-20T13:38:39.374Z,50.89
2023-08-20T13:41:06.024Z,50.10
2023-08-20T13:43:32.627Z,51.08
2023-08-20T13:45:59.188Z,49.90
2023-08-20T13:48:25.772Z,48.21
2023-08-20T13:50:52.405Z,50.43
2023-08-20T13:53:19.062Z,50.66
2023-08-20T13:55:45.880Z,48.29
2023-08-20T13:58:12.421Z,50.65
2023-08-20T14:00:39.598Z,54.10
2023-08-20T14:03:06.187Z,52.08
2023-08-20T14:05:33.246Z,51.93
2023-08-20T14:07:59.805Z,53.22
2023-08-20T14:10:26.359Z,48.97
2023-08-20T14:12:53.580Z,52.60
2023-08-20T14:15:20.063Z,48.90
2023-08-20T14:17:46.605Z,53.69
2023-08-20T14:20:14.772Z,51.70
2023-08-20T14:22:41.249Z,50.68
2023-08-20T14:25:08.291Z,49.30
2023-08-20T14:27:34.997Z,51.08
2023-08-20T14:30:01.506Z,47.22
2023-08-20T14:32:28.022Z,49.03
2023-08-20T14:34:54.566Z,50.28
2023-08-20T14:37:21.589Z,52.09
2023-08-20T14:39:48.232Z,49.20
2023-08-20T14:42:14.747Z,48.14
2023-08-20T14:44:41.301Z,50.33
2023-08-20T14:47:07.973Z,49.07
2023-08-20T14:49:34.594Z,49.84
2023-08-20T14:52:13.766Z,48.95
2023-08-20T14:54:44.300Z,47.73
2023-08-20T14:57:10.868Z,47.42
2023-08-20T14:59:37.344Z,49.78
2023-08-20T15:02:03.924Z,48.78
2023-08-20T15:04:30.508Z,48.19
2023-08-20T15:06:57.019Z,50.98
2023-08-20T15:09:23.601Z,49.47
2023-08-20T15:11:50.170Z,48.14
2023-08-20T15:14:16.776Z,47.42
2023-08-20T15:16:43.647Z,49.36
2023-08-20T15:19:10.279Z,49.95
2023-08-20T15:21:36.859Z,49.08
2023-08-20T15:24:05.089Z,48.30
2023-08-20T15:26:33.307Z,50.06
2023-08-20T15:29:01.511Z,49.13
2023-08-20T15:31:29.835Z,48.25
2023-08-20T15:33:56.564Z,49.63
2023-08-20T15:36:23.161Z,50.82
2023-08-20T15:38:49.687Z,48.97
2023-08-20T15:41:16.217Z,46.79
2023-08-20T15:43:42.860Z,50.34
2023-08-20T15:46:09.437Z,46.36
2023-08-20T15:48:36.076Z,50.26
2023-08-20T15:51:02.746Z,49.05
2023-08-20T15:53:29.267Z,49.49
2023-08-20T15:55:55.801Z,47.25
2023-08-20T15:58:22.580Z,51.00
2023-08-20T16:00:49.211Z,49.70
2023-08-20T16:03:15.831Z,51.01
2023-08-20T16:05:42.998Z,52.00
2023-08-20T16:08:09.965Z,50.42
2023-08-20T16:10:36.611Z,51.30
2023-08-20T16:13:03.931Z,51.69
2023-08-20T16:15:30.604Z,53.43
2023-08-20T16:17:57.390Z,52.36
2023-08-20T16:20:24.562Z,54.98
2023-08-20T16:22:51.121Z,54.97
2023-08-20T16:25:17.650Z,54.27
2023-08-20T16:27:44.385Z,55.26
2023-08-20T16:30:12.616Z,56.55
2023-08-20T16:32:39.528Z,54.96
2023-08-20T16:35:06.871Z,55.69
2023-08-20T16:37:33.338Z,54.98
2023-08-20T16:39:59.880Z,54.65
2023-08-20T16:42:26.531Z,57.99
2023-08-20T16:44:53.146Z,54.51
2023-08-20T16:47:19.697Z,55.43
2023-08-20T16:49:46.449Z,55.97
2023-08-20T16:52:12.942Z,53.12
2023-08-20T16:54:40.347Z,52.20
2023-08-20T16:57:06.909Z,51.79
2023-08-20T16:59:33.413Z,50.85
2023-08-20T17:01:59.936Z,50.65
2023-08-20T17:04:27.352Z,52.05
2023-08-20T17:06:54.208Z,53.12
2023-08-20T17:09:20.871Z,51.83
2023-08-20T17:11:47.436Z,51.90
2023-08-20T17:14:14.436Z,51.47
2023-08-20T17:16:41.764Z,52.18
2023-08-20T17:19:08.509Z,53.58
2023-08-20T17:21:35.054Z,52.39
2023-08-20T17:24:02.662Z,52.36
2023-08-20T17:26:29.467Z,53.22
2023-08-20T17:28:56.005Z,54.50
2023-08-20T17:31:22.685Z,53.60
2023-08-20T17:33:49.239Z,53.72
2023-08-20T17:36:15.841Z,54.67
2023-08-20T17:38:42.512Z,54.53
2023-08-20T17:41:08.996Z,51.86
2023-08-20T17:43:35.501Z,54.41
2023-08-20T17:46:02.096Z,51.72
2023-08-20T17:48:29.412Z,50.75
2023-08-20T17:50:56.297Z,51.46
2023-08-20T17:53:29.194Z,50.60
2023-08-20T17:55:58.003Z,49.94
2023-08-20T17:58:26.669Z,50.25
2023-08-20T18:00:53.364Z,54.29
2023-08-20T18:03:20.594Z,52.61
2023-08-20T18:05:47.340Z,53.74
2023-08-20T18:08:14.381Z,54.80
2023-08-20T18:10:41.013Z,54.85
2023-08-20T18:13:09.132Z,56.10
2023-08-20T18:15:36.173Z,59.12
2023-08-20T18:18:03.069Z,58.75
2023-08-20T18:20:29.773Z,58.64
2023-08-20T18:22:56.324Z,57.48
2023-08-20T18:25:22.893Z,56.70
2023-08-20T18:27:49.520Z,59.12
2023-08-20T18:30:16.307Z,58.12
2023-08-20T18:32:43.052Z,57.98
2023-08-20T18:35:10.333Z,58.34
2023-08-20T18:37:36.877Z,59.71
2023-08-20T18:40:05.165Z,60.98
2023-08-20T18:42:34.210Z,60.67
2023-08-20T18:45:01.888Z,60.40
2023-08-20T18:47:28.652Z,61.83
2023-08-20T18:49:55.299Z,62.46
2023-08-20T18:52:21.821Z,61.64
2023-08-20T18:54:48.479Z,64.52
2023-08-20T18:57:15.040Z,63.84
2023-08-20T18:59:41.776Z,64.97
2023-08-20T19:02:08.366Z,66.73
2023-08-20T19:04:34.932Z,67.10
2023-08-20T19:07:02.235Z,66.75
2023-08-20T19:09:29.762Z,68.75
2023-08-20T19:11:59.973Z,67.74
2023-08-20T19:14:26.607Z,67.98
2023-08-20T19:16:53.170Z,68.74
2023-08-20T19:19:19.743Z,69.16
2023-08-20T19:21:46.289Z,69.03
2023-08-20T19:24:12.941Z,69.46
2023-08-20T19:26:39.582Z,69.61
2023-08-20T19:29:06.095Z,70.52
2023-08-20T19:31:32.821Z,71.56
2023-08-20T19:33:59.349Z,71.78
2023-08-20T19:36:25.938Z,71.60
2023-08-20T19:38:52.478Z,72.26
2023-08-20T19:41:19.039Z,72.07
2023-08-20T19:43:45.745Z,71.61
2023-08-20T19:46:14.893Z,72.03
2023-08-20T19:48:41.658Z,72.43
2023-08-20T19:51:08.280Z,73.23
2023-08-20T19:53:34.847Z,74.95
2023-08-20T19:56:01.429Z,74.82
2023-08-20T19:58:28.104Z,75.25
2023-08-20T20:00:54.753Z,74.69
2023-08-20T20:03:21.392Z,74.38
2023-08-20T20:05:47.916Z,74.64
2023-08-20T20:08:14.469Z,75.63
2023-08-20T20:10:41.348Z,74.62
2023-08-20T20:13:07.867Z,74.64
2023-08-20T20:15:34.483Z,74.83
2023-08-20T20:18:01.096Z,74.30
2023-08-20T20:20:28.274Z,74.86
2023-08-20T20:22:54.923Z,75.44
2023-08-20T20:25:22.983Z,75.41
2023-08-20T20:27:51.302Z,75.99
2023-08-20T20:30:17.827Z,76.87
2023-08-20T20:32:45.745Z,78.02
2023-08-20T20:35:12.495Z,79.49
2023-08-20T20:37:39.772Z,78.53
2023-08-20T20:40:09.955Z,78.59
2023-08-20T20:42:37.825Z,79.49
2023-08-20T20:45:06.849Z,79.60
2023-08-20T20:47:33.680Z,79.60
2023-08-20T20:50:00.485Z,80.10
2023-08-20T20:52:27.210Z,81.38
2023-08-20T20:54:53.784Z,81.34
2023-08-20T20:57:21.126Z,80.65
2023-08-20T20:59:47.703Z,81.47
2023-08-20T21:02:14.268Z,82.56
2023-08-20T21:04:40.939Z,81.87
2023-08-20T21:07:07.638Z,83.54
2023-08-20T21:09:34.254Z,83.34
2023-08-20T21:12:00.930Z,83.78
2023-08-20T21:14:27.494Z,84.04
2023-08-20T21:16:54.121Z,84.84
2023-08-20T21:19:20.640Z,84.37
2023-08-20T21:21:47.148Z,84.75
2023-08-20T21:24:13.690Z,85.24
2023-08-20T21:26:40.294Z,85.16
2023-08-20T21:29:07.908Z,85.62
2023-08-20T21:31:34.391Z,86.39
2023-08-20T21:34:00.996Z,86.17
2023-08-20T21:36:27.502Z,86.58
2023-08-20T21:38:54.039Z,87.05
2023-08-20T21:41:20.630Z,86.66
2023-08-20T21:43:48.995Z,86.28
2023-08-20T21:46:16.337Z,86.82
2023-08-20T21:48:43.292Z,86.96
2023-08-20T21:51:11.064Z,86.46
2023-08-20T21:53:38.075Z,86.61
2023-08-20T21:56:04.771Z,87.03
2023-08-20T21:58:31.341Z,87.07
2023-08-20T22:00:59.748Z,87.44
2023-08-20T22:03:26.434Z,87.17
2023-08-20T22:05:53.023Z,88.62
2023-08-20T22:08:19.574Z,88.87
2023-08-20T22:10:46.269Z,88.84
2023-08-20T22:13:15.133Z,89.77
2023-08-20T22:15:42.152Z,89.65
2023-08-20T22:18:08.731Z,90.08
2023-08-20T22:20:35.299Z,90.41
2023-08-20T22:23:01.827Z,90.27
2023-08-20T22:25:28.391Z,90.43
2023-08-20T22:27:55.565Z,90.74
2023-08-20T22:30:23.481Z,91.17
2023-08-20T22:32:50.224Z,89.90
2023-08-20T22:35:16.897Z,90.07
2023-08-20T22:38:01.493Z,89.74
2023-08-20T22:40:27.976Z,90.26
2023-08-20T22:42:54.533Z,90.72
2023-08-20T22:45:21.104Z,91.35
2023-08-20T22:47:47.975Z,90.80
2023-08-20T22:50:14.578Z,91.60
2023-08-20T22:52:41.120Z,91.30
2023-08-20T22:55:11.336Z,91.31
2023-08-20T22:57:37.899Z,91.83
2023-08-20T23:00:08.797Z,91.64
2023-08-20T23:02:36.675Z,91.08
2023-08-20T23:05:03.831Z,90.86
2023-08-20T23:07:30.311Z,92.80
2023-08-20T23:09:57.436Z,93.01
2023-08-20T23:12:24.611Z,93.27
2023-08-20T23:14:52.787Z,92.91
2023-08-20T23:17:20.290Z,92.35
2023-08-20T23:19:50.129Z,91.86
2023-08-20T23:22:18.534Z,93.39
2023-08-20T23:24:45.441Z,92.41
2023-08-20T23:27:12.146Z,93.96
2023-08-20T23:29:38.709Z,93.49
2023-08-20T23:32:05.733Z,92.69
2023-08-20T23:34:32.570Z,92.79
2023-08-20T23:36:59.242Z,93.16
2023-08-20T23:39:25.862Z,93.95
2023-08-20T23:41:52.390Z,93.46
2023-08-20T23:44:19.076Z,93.33
2023-08-20T23:46:48.550Z,93.02
2023-08-20T23:49:15.654Z,94.13
2023-08-20T23:51:42.255Z,93.94
2023-08-20T23:54:09.676Z,94.08
2023-08-20T23:56:36.485Z,94.43
2023-08-20T23:59:03.153Z,94.87
